createdAt,value
2023-01-09T00:00:55.207Z,4.57
2023-01-09T00:03:21.886Z,4.49
2023-01-09T00:05:48.549Z,4.45
2023-01-09T00:08:15.594Z,4.47
2023-01-09T00:10:42.275Z,4.51
2023-01-09T00:13:14.357Z,4.37
2023-01-09T00:15:41.874Z,4.35
2023-01-09T00:18:08.530Z,4.39
2023-01-09T00:20:36.045Z,4.41
2023-01-09T00:23:03.314Z,4.39
2023-01-09T00:25:29.969Z,4.38
2023-01-09T00:27:56.709Z,4.40
2023-01-09T00:30:23.410Z,4.35
2023-01-09T00:32:50.076Z,4.52
2023-01-09T00:35:18.404Z,4.54
2023-01-09T00:37:45.328Z,4.63
2023-01-09T00:40:14.433Z,4.48
2023-01-09T00:42:43.173Z,4.51
2023-01-09T00:45:20.303Z,4.50
2023-01-09T00:47:49.880Z,4.65
2023-01-09T00:50:22.076Z,4.23
2023-01-09T00:52:50.441Z,4.42
2023-01-09T00:55:17.598Z,4.28
2023-01-09T00:57:44.338Z,4.23
2023-01-09T01:00:11.640Z,4.33
2023-01-09T01:02:38.390Z,4.48
2023-01-09T01:05:24.318Z,4.30
2023-01-09T01:07:50.933Z,4.23
2023-01-09T01:10:23.633Z,4.28
2023-01-09T01:12:51.286Z,4.18
2023-01-09T01:15:19.122Z,4.13
2023-01-09T01:17:45.988Z,4.07
2023-01-09T01:20:17.620Z,4.10
2023-01-09T01:22:44.921Z,4.12
2023-01-09T01:25:13.040Z,4.05
2023-01-09T01:27:40.402Z,4.03
2023-01-09T01:30:08.943Z,4.11
2023-01-09T01:32:35.651Z,4.07
2023-01-09T01:35:02.455Z,4.13
2023-01-09T01:37:29.107Z,4.11
2023-01-09T01:39:55.850Z,4.14
2023-01-09T01:42:23.121Z,4.13
2023-01-09T01:45:11.023Z,4.01
2023-01-09T01:47:46.498Z,4.11
2023-01-09T01:50:39.653Z,4.06
2023-01-09T01:53:28.577Z,3.97
2023-01-09T01:56:09.947Z,3.95
2023-01-09T01:58:43.206Z,3.76
2023-01-09T02:01:10.661Z,3.88
2023-01-09T02:03:39.830Z,3.83
2023-01-09T02:06:07.700Z,3.76
2023-01-09T02:08:34.439Z,3.90
2023-01-09T02:11:03.622Z,3.86
2023-01-09T02:13:32.504Z,3.91
2023-01-09T02:16:15.171Z,3.99
2023-01-09T02:19:27.942Z,4.11
2023-01-09T02:22:19.381Z,4.01
2023-01-09T02:25:20.075Z,4.08
2023-01-09T02:28:15.095Z,4.15
2023-01-09T02:30:51.497Z,4.02
2023-01-09T02:33:29.403Z,3.98
2023-01-09T02:36:16.397Z,4.01
2023-01-09T02:39:05.576Z,3.99
2023-01-09T02:41:38.234Z,4.00
2023-01-09T02:44:18.586Z,4.03
2023-01-09T02:46:45.406Z,3.95
2023-01-09T02:49:13.702Z,4.18
2023-01-09T02:51:59.850Z,3.97
2023-01-09T02:54:46.492Z,3.99
2023-01-09T02:57:34.793Z,3.97
2023-01-09T03:00:16.250Z,3.98
2023-01-09T03:02:46.437Z,4.02
2023-01-09T03:05:25.250Z,4.08
2023-01-09T03:08:15.690Z,4.10
2023-01-09T03:11:07.784Z,3.99
2023-01-09T03:13:52.299Z,4.06
2023-01-09T03:16:28.992Z,3.98
2023-01-09T03:18:58.674Z,3.99
2023-01-09T03:21:26.662Z,4.05
2023-01-09T03:24:01.575Z,4.01
2023-01-09T03:26:29.602Z,4.04
2023-01-09T03:28:56.443Z,4.04
2023-01-09T03:31:23.303Z,4.06
2023-01-09T03:33:49.965Z,4.03
2023-01-09T03:36:17.934Z,3.99
2023-01-09T03:38:44.672Z,4.06
2023-01-09T03:41:11.347Z,4.08
2023-01-09T03:43:38.205Z,4.07
2023-01-09T03:46:05.181Z,3.97
2023-01-09T03:48:31.989Z,4.00
2023-01-09T03:50:58.759Z,3.85
2023-01-09T03:53:27.884Z,3.75
2023-01-09T03:55:56.553Z,3.86
2023-01-09T03:58:24.068Z,3.85
2023-01-09T04:00:52.573Z,3.88
2023-01-09T04:03:21.102Z,4.00
2023-01-09T04:05:49.923Z,3.93
2023-01-09T04:08:17.468Z,4.08
2023-01-09T04:10:45.633Z,4.01
2023-01-09T04:13:12.650Z,3.83
2023-01-09T04:15:39.450Z,3.82
2023-01-09T04:18:06.302Z,3.83
2023-01-09T04:20:33.361Z,3.84
2023-01-09T04:22:59.996Z,3.67
2023-01-09T04:25:27.302Z,3.77
2023-01-09T04:27:54.012Z,3.69
2023-01-09T04:30:20.711Z,3.76
2023-01-09T04:32:47.386Z,3.75
2023-01-09T04:35:14.169Z,3.73
2023-01-09T04:37:40.805Z,3.75
2023-01-09T04:40:12.367Z,3.78
2023-01-09T04:42:40.359Z,3.81
2023-01-09T04:45:09.141Z,3.81
2023-01-09T04:47:35.821Z,3.81
2023-01-09T04:50:02.534Z,3.50
2023-01-09T04:52:29.390Z,3.59
2023-01-09T04:54:55.982Z,3.74
2023-01-09T04:57:22.757Z,3.63
2023-01-09T04:59:49.503Z,3.63
2023-01-09T05:02:16.285Z,3.72
2023-01-09T05:04:43.040Z,3.72
2023-01-09T05:07:09.655Z,3.76
2023-01-09T05:09:36.331Z,3.78
2023-01-09T05:12:03.475Z,3.68
2023-01-09T05:14:30.218Z,3.62
2023-01-09T05:16:56.937Z,3.52
2023-01-09T05:19:23.887Z,3.56
2023-01-09T05:21:50.811Z,3.48
2023-01-09T05:24:17.637Z,3.59
2023-01-09T05:26:44.316Z,3.55
2023-01-09T05:29:11.145Z,3.62
2023-01-09T05:31:37.876Z,3.64
2023-01-09T05:34:04.539Z,3.69
2023-01-09T05:36:31.253Z,3.66
2023-01-09T05:39:02.701Z,3.60
2023-01-09T05:41:29.443Z,3.76
2023-01-09T05:43:56.110Z,3.65
2023-01-09T05:46:22.850Z,3.62
2023-01-09T05:48:49.779Z,3.61
2023-01-09T05:51:16.455Z,3.90
2023-01-09T05:53:43.058Z,3.72
2023-01-09T05:56:11.711Z,3.64
2023-01-09T05:58:38.717Z,3.57
2023-01-09T06:01:05.947Z,3.62
2023-01-09T06:03:32.777Z,3.59
2023-01-09T06:05:59.428Z,3.59
2023-01-09T06:08:26.136Z,3.70
2023-01-09T06:10:52.826Z,3.76
2023-01-09T06:13:19.513Z,3.68
2023-01-09T06:15:48.296Z,3.75
2023-01-09T06:18:15.102Z,3.75
2023-01-09T06:20:41.801Z,3.71
2023-01-09T06:23:08.438Z,3.78
2023-01-09T06:25:35.117Z,3.77
2023-01-09T06:28:01.872Z,3.65
2023-01-09T06:30:28.607Z,3.60
2023-01-09T06:32:55.265Z,3.52
2023-01-09T06:35:22.489Z,3.52
2023-01-09T06:37:49.936Z,3.46
2023-01-09T06:40:17.976Z,3.39
2023-01-09T06:42:46.072Z,3.38
2023-01-09T06:45:13.855Z,3.46
2023-01-09T06:47:40.859Z,3.29
2023-01-09T06:50:11.546Z,3.38
2023-01-09T06:52:38.874Z,3.36
2023-01-09T06:55:06.313Z,3.59
2023-01-09T06:57:33.015Z,3.50
2023-01-09T06:59:59.703Z,3.46
2023-01-09T07:02:26.406Z,3.55
2023-01-09T07:04:53.048Z,3.37
2023-01-09T07:07:20.445Z,3.33
2023-01-09T07:09:47.152Z,3.50
2023-01-09T07:12:14.996Z,3.38
2023-01-09T07:14:41.974Z,3.37
2023-01-09T07:17:10.145Z,3.34
2023-01-09T07:19:36.771Z,3.50
2023-01-09T07:22:03.393Z,3.47
2023-01-09T07:24:30.037Z,3.50
2023-01-09T07:26:56.795Z,3.43
2023-01-09T07:29:23.488Z,3.63
2023-01-09T07:31:50.140Z,3.52
2023-01-09T07:34:16.777Z,3.50
2023-01-09T07:36:46.500Z,3.49
2023-01-09T07:39:13.778Z,3.59
2023-01-09T07:41:40.531Z,3.42
2023-01-09T07:44:09.554Z,3.48
2023-01-09T07:46:37.690Z,3.63
2023-01-09T07:49:04.545Z,3.79
2023-01-09T07:51:31.216Z,3.74
2023-01-09T07:53:57.908Z,3.99
2023-01-09T07:56:24.645Z,3.93
2023-01-09T07:58:51.319Z,3.73
2023-01-09T08:01:18.163Z,3.75
2023-01-09T08:03:44.860Z,3.90
2023-01-09T08:06:11.554Z,3.87
2023-01-09T08:08:38.273Z,4.04
2023-01-09T08:11:05.138Z,4.13
2023-01-09T08:13:31.834Z,4.08
2023-01-09T08:15:58.555Z,3.87
2023-01-09T08:18:25.217Z,4.19
2023-01-09T08:20:51.922Z,4.03
2023-01-09T08:23:18.562Z,4.01
2023-01-09T08:25:45.206Z,4.02
2023-01-09T08:28:12.308Z,4.45
2023-01-09T08:30:39.443Z,4.63
2023-01-09T08:33:06.077Z,4.73
2023-01-09T08:35:32.808Z,4.53
2023-01-09T08:37:59.556Z,4.77
2023-01-09T08:40:26.233Z,4.81
2023-01-09T08:43:11.513Z,4.66
2023-01-09T08:45:56.649Z,4.40
2023-01-09T08:48:23.295Z,4.24
2023-01-09T08:50:50.150Z,4.23
2023-01-09T08:53:16.888Z,4.36
2023-01-09T08:55:43.848Z,4.32
2023-01-09T08:58:10.978Z,4.49
2023-01-09T09:00:38.074Z,4.83
2023-01-09T09:03:05.114Z,5.11
2023-01-09T09:05:32.594Z,5.36
2023-01-09T09:07:59.645Z,4.99
2023-01-09T09:10:28.488Z,4.67
2023-01-09T09:12:57.179Z,4.77
2023-01-09T09:15:25.374Z,4.91
2023-01-09T09:17:53.730Z,5.04
2023-01-09T09:20:24.847Z,5.09
2023-01-09T09:22:51.921Z,4.97
2023-01-09T09:25:19.467Z,5.01
2023-01-09T09:27:46.325Z,5.12
2023-01-09T09:30:15.420Z,5.54
2023-01-09T09:32:42.365Z,5.55
2023-01-09T09:35:09.830Z,5.36
2023-01-09T09:37:37.176Z,5.72
2023-01-09T09:40:17.452Z,5.20
2023-01-09T09:43:42.607Z,5.59
2023-01-09T09:46:26.234Z,5.63
2023-01-09T09:48:59.696Z,5.62
2023-01-09T09:51:47.773Z,5.83
2023-01-09T09:54:20.533Z,5.94
2023-01-09T09:56:51.494Z,5.69
2023-01-09T09:59:24.943Z,5.64
2023-01-09T10:02:00.873Z,5.78
2023-01-09T10:04:30.920Z,5.89
2023-01-09T10:07:06.193Z,5.89
2023-01-09T10:09:40.241Z,5.85
2023-01-09T10:12:29.553Z,5.70
2023-01-09T10:15:02.440Z,5.63
2023-01-09T10:17:52.353Z,5.73
2023-01-09T10:20:21.910Z,5.87
2023-01-09T10:22:48.553Z,5.74
2023-01-09T10:25:33.570Z,5.65
2023-01-09T10:28:00.122Z,5.36
2023-01-09T10:30:29.745Z,5.25
2023-01-09T10:33:14.828Z,5.66
2023-01-09T10:35:51.091Z,5.82
2023-01-09T10:38:23.816Z,5.76
2023-01-09T10:41:00.694Z,5.81
2023-01-09T10:43:43.638Z,5.68
2023-01-09T10:46:17.036Z,5.47
2023-01-09T10:48:50.669Z,5.46
2023-01-09T10:51:28.050Z,5.36
2023-01-09T10:53:56.379Z,5.71
2023-01-09T10:56:23.882Z,5.82
2023-01-09T10:58:52.847Z,5.97
2023-01-09T11:01:29.038Z,6.08
2023-01-09T11:03:59.138Z,6.24
2023-01-09T11:06:45.710Z,6.23
2023-01-09T11:09:12.441Z,5.71
2023-01-09T11:11:44.531Z,5.93
2023-01-09T11:14:37.481Z,6.02
2023-01-09T11:17:04.358Z,5.94
2023-01-09T11:19:33.464Z,6.09
2023-01-09T11:22:17.343Z,6.15
2023-01-09T11:24:44.570Z,5.93
2023-01-09T11:27:14.200Z,6.11
2023-01-09T11:29:42.079Z,6.00
2023-01-09T11:32:23.161Z,6.14
2023-01-09T11:34:50.048Z,6.19
2023-01-09T11:37:26.361Z,6.29
2023-01-09T11:39:53.461Z,6.37
2023-01-09T11:42:44.492Z,6.58
2023-01-09T11:45:20.175Z,6.41
2023-01-09T11:47:47.392Z,6.19
2023-01-09T11:50:22.958Z,6.36
2023-01-09T11:53:19.499Z,6.69
2023-01-09T11:55:50.045Z,6.78
2023-01-09T11:58:21.062Z,6.93
2023-01-09T12:00:50.897Z,7.03
2023-01-09T12:03:20.177Z,6.80
2023-01-09T12:06:03.903Z,6.92
2023-01-09T12:08:55.438Z,6.57
2023-01-09T12:11:44.435Z,6.58
2023-01-09T12:14:26.278Z,6.56
2023-01-09T12:17:14.960Z,6.75
2023-01-09T12:19:57.544Z,6.73
2023-01-09T12:22:33.371Z,6.75
2023-01-09T12:25:17.889Z,6.74
2023-01-09T12:27:50.273Z,6.95
2023-01-09T12:30:26.315Z,6.94
2023-01-09T12:33:08.851Z,7.10
2023-01-09T12:35:55.014Z,7.01
2023-01-09T12:38:41.884Z,6.93
2023-01-09T12:41:49.720Z,7.03
2023-01-09T12:44:36.186Z,7.24
2023-01-09T12:47:24.434Z,7.18
2023-01-09T12:50:35.440Z,7.41
2023-01-09T12:53:32.398Z,7.67
2023-01-09T12:56:08.407Z,7.80
2023-01-09T12:58:53.145Z,8.20
2023-01-09T13:01:29.951Z,8.15
2023-01-09T13:04:08.661Z,8.08
2023-01-09T13:06:40.333Z,7.83
2023-01-09T13:09:31.779Z,7.87
2023-01-09T13:12:12.295Z,7.67
2023-01-09T13:14:48.706Z,7.61
2023-01-09T13:17:25.042Z,7.67
2023-01-09T13:19:53.284Z,7.62
2023-01-09T13:22:22.648Z,7.40
2023-01-09T13:25:04.685Z,7.32
2023-01-09T13:27:36.503Z,7.64
2023-01-09T13:30:21.483Z,7.27
2023-01-09T13:32:53.974Z,7.34
2023-01-09T13:35:20.664Z,7.23
2023-01-09T13:37:52.134Z,7.20
2023-01-09T13:40:18.754Z,7.40
2023-01-09T13:43:02.698Z,7.29
2023-01-09T13:45:32.752Z,7.12
2023-01-09T13:48:11.993Z,7.38
2023-01-09T13:50:39.413Z,7.30
2023-01-09T13:53:18.112Z,7.30
2023-01-09T13:56:03.195Z,7.40
2023-01-09T13:58:32.055Z,7.53
2023-01-09T14:01:21.879Z,7.35
2023-01-09T14:04:21.496Z,7.42
2023-01-09T14:07:26.812Z,7.41
2023-01-09T14:10:02.602Z,7.21
2023-01-09T14:12:32.772Z,7.20
2023-01-09T14:15:04.234Z,7.19
2023-01-09T14:17:37.676Z,7.08
2023-01-09T14:20:08.363Z,6.94
2023-01-09T14:22:45.684Z,7.04
2023-01-09T14:25:26.776Z,7.02
2023-01-09T14:27:56.086Z,6.99
2023-01-09T14:30:22.665Z,6.84
2023-01-09T14:32:57.899Z,7.15
2023-01-09T14:35:29.367Z,7.03
2023-01-09T14:38:05.154Z,7.05
2023-01-09T14:40:33.369Z,7.03
2023-01-09T14:43:12.074Z,7.09
2023-01-09T14:45:41.243Z,6.85
2023-01-09T14:48:12.195Z,6.80
2023-01-09T14:50:55.417Z,6.92
2023-01-09T14:53:31.406Z,6.93
2023-01-09T14:56:06.068Z,7.16
2023-01-09T14:58:37.024Z,7.00
2023-01-09T15:01:18.908Z,6.73
2023-01-09T15:03:59.067Z,6.75
2023-01-09T15:06:29.873Z,6.81
2023-01-09T15:09:06.506Z,6.77
2023-01-09T15:11:35.149Z,6.64
2023-01-09T15:14:04.381Z,6.67
2023-01-09T15:16:32.884Z,6.76
2023-01-09T15:19:03.821Z,6.84
2023-01-09T15:21:32.158Z,6.99
2023-01-09T15:24:34.406Z,7.02
2023-01-09T15:27:10.576Z,6.72
2023-01-09T15:29:37.308Z,6.66
2023-01-09T15:32:09.056Z,6.71
2023-01-09T15:34:36.327Z,6.50
2023-01-09T15:37:03.682Z,6.42
2023-01-09T15:39:36.814Z,6.53
2023-01-09T15:42:22.429Z,6.21
2023-01-09T15:44:51.148Z,5.99
2023-01-09T15:47:23.366Z,5.90
2023-01-09T15:49:50.929Z,5.94
2023-01-09T15:52:19.078Z,5.78
2023-01-09T15:54:46.692Z,5.65
2023-01-09T15:57:25.446Z,5.57
2023-01-09T15:59:56.761Z,5.42
2023-01-09T16:02:44.094Z,5.29
2023-01-09T16:05:16.230Z,5.22
2023-01-09T16:07:51.131Z,5.38
2023-01-09T16:10:29.881Z,5.21
2023-01-09T16:12:57.217Z,5.29
2023-01-09T16:15:24.051Z,5.26
2023-01-09T16:18:17.842Z,5.15
2023-01-09T16:20:45.460Z,5.02
2023-01-09T16:23:24.020Z,5.06
2023-01-09T16:25:50.915Z,4.91
2023-01-09T16:28:27.112Z,5.01
2023-01-09T16:31:09.182Z,5.12
2023-01-09T16:33:36.692Z,5.08
2023-01-09T16:36:06.279Z,5.40
2023-01-09T16:38:32.975Z,5.56
2023-01-09T16:41:20.788Z,5.66
2023-01-09T16:43:48.081Z,5.67
2023-01-09T16:46:16.282Z,5.64
2023-01-09T16:48:43.266Z,5.68
2023-01-09T16:51:21.743Z,5.73
2023-01-09T16:53:49.505Z,5.80
2023-01-09T16:56:25.796Z,5.97
2023-01-09T16:58:55.464Z,5.89
2023-01-09T17:01:23.073Z,6.03
2023-01-09T17:03:50.623Z,6.04
2023-01-09T17:09:24.042Z,6.01
2023-01-09T17:11:52.212Z,5.94
2023-01-09T17:14:18.889Z,6.16
2023-01-09T17:16:46.817Z,6.08
2023-01-09T17:19:19.286Z,6.23
2023-01-09T17:21:46.470Z,6.34
2023-01-09T17:24:31.492Z,6.34
2023-01-09T17:27:17.321Z,6.37
2023-01-09T17:29:44.674Z,6.56
2023-01-09T17:32:18.379Z,6.22
2023-01-09T17:34:45.243Z,6.09
2023-01-09T17:37:15.839Z,6.07
2023-01-09T17:39:43.180Z,6.20
2023-01-09T17:42:09.886Z,6.38
2023-01-09T17:44:36.620Z,6.55
2023-01-09T17:47:03.696Z,6.69
2023-01-09T17:49:30.369Z,6.70
2023-01-09T17:51:56.992Z,6.87
2023-01-09T17:54:23.712Z,6.89
2023-01-09T17:56:51.321Z,6.89
2023-01-09T17:59:18.424Z,6.89
2023-01-09T18:01:45.557Z,6.96
2023-01-09T18:04:12.466Z,6.80
2023-01-09T18:06:39.137Z,6.76
2023-01-09T18:09:07.100Z,6.54
2023-01-09T18:11:33.938Z,6.50
2023-01-09T18:14:00.620Z,6.61
2023-01-09T18:16:28.624Z,6.63
2023-01-09T18:19:00.053Z,6.73
2023-01-09T18:21:29.273Z,6.72
2023-01-09T18:23:57.939Z,6.81
2023-01-09T18:26:24.935Z,6.65
2023-01-09T18:28:57.219Z,6.63
2023-01-09T18:31:26.128Z,6.57
2023-01-09T18:33:56.590Z,6.46
2023-01-09T18:36:30.804Z,6.43
2023-01-09T18:39:03.722Z,6.48
2023-01-09T18:41:31.653Z,6.70
2023-01-09T18:44:00.304Z,6.72
2023-01-09T18:46:31.053Z,6.57
2023-01-09T18:49:03.342Z,6.60
2023-01-09T18:51:31.625Z,6.39
2023-01-09T18:53:58.850Z,5.96
2023-01-09T18:56:25.646Z,5.85
2023-01-09T18:58:57.252Z,6.06
2023-01-09T19:01:24.882Z,5.79
2023-01-09T19:03:51.762Z,5.78
2023-01-09T19:06:18.610Z,5.69
2023-01-09T19:08:45.363Z,5.67
2023-01-09T19:11:12.203Z,5.50
2023-01-09T19:13:39.141Z,5.72
2023-01-09T19:16:07.817Z,5.81
2023-01-09T19:18:41.907Z,5.70
2023-01-09T19:21:18.219Z,5.89
2023-01-09T19:23:46.551Z,6.12
2023-01-09T19:26:17.708Z,5.85
2023-01-09T19:28:47.270Z,5.84
2023-01-09T19:31:15.215Z,5.89
2023-01-09T19:33:42.366Z,6.02
2023-01-09T19:36:09.471Z,6.18
2023-01-09T19:38:36.404Z,6.06
2023-01-09T19:41:19.997Z,6.12
2023-01-09T19:43:48.038Z,5.74
2023-01-09T19:46:17.593Z,5.80
2023-01-09T19:48:44.888Z,5.97
2023-01-09T19:51:13.012Z,6.06
2023-01-09T19:53:40.223Z,6.03
2023-01-09T19:56:16.250Z,6.11
2023-01-09T19:58:47.783Z,6.08
2023-01-09T20:01:17.157Z,6.31
2023-01-09T20:03:46.568Z,6.37
2023-01-09T20:06:17.619Z,6.41
2023-01-09T20:08:45.697Z,6.32
2023-01-09T20:11:12.505Z,6.20
2023-01-09T20:13:39.662Z,6.15
2023-01-09T20:16:07.106Z,6.26
2023-01-09T20:18:35.570Z,5.96
2023-01-09T20:21:02.308Z,5.95
2023-01-09T20:23:29.547Z,5.86
2023-01-09T20:25:57.359Z,5.90
2023-01-09T20:28:26.262Z,5.81
2023-01-09T20:30:53.530Z,5.82
2023-01-09T20:33:21.586Z,5.85
2023-01-09T20:35:48.430Z,5.82
2023-01-09T20:38:15.592Z,5.84
2023-01-09T20:40:45.540Z,5.82
2023-01-09T20:43:13.024Z,5.69
2023-01-09T20:45:40.523Z,5.56
2023-01-09T20:48:08.085Z,5.55
2023-01-09T20:50:34.910Z,5.72
2023-01-09T20:53:01.563Z,5.68
2023-01-09T20:55:28.245Z,5.72
2023-01-09T20:57:54.925Z,5.68
2023-01-09T21:00:23.636Z,5.66
2023-01-09T21:02:50.552Z,5.61
2023-01-09T21:05:17.358Z,5.62
2023-01-09T21:07:43.952Z,5.73
2023-01-09T21:10:11.274Z,5.66
2023-01-09T21:12:38.518Z,5.58
2023-01-09T21:15:08.918Z,5.46
2023-01-09T21:17:36.903Z,5.55
2023-01-09T21:20:09.872Z,5.49
2023-01-09T21:22:36.928Z,5.55
2023-01-09T21:25:04.423Z,5.64
2023-01-09T21:27:34.527Z,5.64
2023-01-09T21:30:01.291Z,5.49
2023-01-09T21:32:29.815Z,5.53
2023-01-09T21:35:00.611Z,5.63
2023-01-09T21:37:28.377Z,5.46
2023-01-09T21:39:55.043Z,5.34
2023-01-09T21:42:40.211Z,5.40
2023-01-09T21:45:34.859Z,5.55
2023-01-09T21:48:06.197Z,5.54
2023-01-09T21:50:36.466Z,5.59
2023-01-09T21:53:04.050Z,5.73
2023-01-09T21:55:33.936Z,5.76
2023-01-09T21:58:01.684Z,5.68
2023-01-09T22:00:29.200Z,5.57
2023-01-09T22:02:55.906Z,5.58
2023-01-09T22:05:24.760Z,5.48
2023-01-09T22:07:51.744Z,5.49
2023-01-09T22:10:18.650Z,5.53
2023-01-09T22:13:05.217Z,5.57
2023-01-09T22:15:32.639Z,5.35
2023-01-09T22:17:59.244Z,5.51
2023-01-09T22:20:25.933Z,5.56
2023-01-09T22:22:52.671Z,5.52
2023-01-09T22:25:21.115Z,5.42
2023-01-09T22:27:48.670Z,5.52
2023-01-09T22:30:15.657Z,5.43
2023-01-09T22:32:43.053Z,5.44
2023-01-09T22:35:10.124Z,5.38
2023-01-09T22:37:36.882Z,5.30
2023-01-09T22:40:04.424Z,5.22
2023-01-09T22:42:31.260Z,5.38
2023-01-09T22:44:57.940Z,5.42
2023-01-09T22:47:24.611Z,5.49
2023-01-09T22:49:53.469Z,5.47
2023-01-09T22:52:21.375Z,5.46
2023-01-09T22:54:48.246Z,5.50
2023-01-09T22:57:14.964Z,5.30
2023-01-09T22:59:41.701Z,5.21
2023-01-09T23:02:08.432Z,5.25
2023-01-09T23:04:35.199Z,5.32
2023-01-09T23:07:02.215Z,5.34
2023-01-09T23:09:28.844Z,5.27
2023-01-09T23:12:05.835Z,5.36
2023-01-09T23:14:36.011Z,5.38
2023-01-09T23:17:04.296Z,5.29
2023-01-09T23:19:32.544Z,5.33
2023-01-09T23:22:00.803Z,5.22
2023-01-09T23:24:27.846Z,5.17
2023-01-09T23:26:55.743Z,5.11
2023-01-09T23:29:23.625Z,5.19
2023-01-09T23:31:53.514Z,5.12
2023-01-09T23:34:28.596Z,4.99
2023-01-09T23:36:57.454Z,5.02
2023-01-09T23:39:24.353Z,4.89
2023-01-09T23:42:09.646Z,4.69
2023-01-09T23:44:39.331Z,4.68
2023-01-09T23:47:06.099Z,4.66
2023-01-09T23:49:32.906Z,4.68
2023-01-09T23:52:01.716Z,4.68
2023-01-09T23:54:28.739Z,4.70
2023-01-09T23:56:56.629Z,4.75
2023-01-09T23:59:23.654Z,4.60
